createdAt,value
2023-04-12T00:01:52.247Z,31.26
2023-04-12T00:04:18.771Z,31.43
2023-04-12T00:06:48.343Z,31.43
2023-04-12T00:09:15.894Z,31.55
2023-04-12T00:11:42.225Z,31.44
2023-04-12T00:14:08.566Z,31.53
2023-04-12T00:16:36.239Z,31.56
2023-04-12T00:19:03.573Z,31.62
2023-04-12T00:21:30.152Z,31.71
2023-04-12T00:23:57.413Z,31.63
2023-04-12T00:26:25.759Z,31.52
2023-04-12T00:28:52.086Z,31.62
2023-04-12T00:31:18.491Z,31.71
2023-04-12T00:33:44.960Z,31.49
2023-04-12T00:36:11.327Z,31.50
2023-04-12T00:38:38.114Z,31.50
2023-04-12T00:41:04.436Z,31.54
2023-04-12T00:43:30.780Z,31.53
2023-04-12T00:45:57.722Z,31.57
2023-04-12T00:48:24.359Z,31.62
2023-04-12T00:50:51.161Z,31.61
2023-04-12T00:53:17.691Z,31.60
2023-04-12T00:55:44.321Z,31.69
2023-04-12T00:58:10.718Z,31.70
2023-04-12T01:00:37.080Z,31.51
2023-04-12T01:03:05.327Z,31.55
2023-04-12T01:05:31.734Z,31.66
2023-04-12T01:08:16.884Z,31.65
2023-04-12T01:10:52.437Z,31.54
2023-04-12T01:13:18.695Z,31.52
2023-04-12T01:15:48.686Z,31.62
2023-04-12T01:18:17.307Z,31.61
2023-04-12T01:20:44.690Z,31.66
2023-04-12T01:23:14.749Z,31.50
2023-04-12T01:25:51.069Z,31.39
2023-04-12T01:28:20.956Z,31.51
2023-04-12T01:30:47.566Z,31.59
2023-04-12T01:33:13.952Z,31.57
2023-04-12T01:35:40.701Z,31.57
2023-04-12T01:38:07.047Z,31.45
2023-04-12T01:40:33.404Z,31.58
2023-04-12T01:43:06.003Z,31.46
2023-04-12T01:45:32.436Z,31.55
2023-04-12T01:47:58.938Z,31.33
2023-04-12T01:50:40.307Z,31.42
2023-04-12T01:53:08.974Z,31.28
2023-04-12T01:55:35.409Z,31.29
2023-04-12T01:58:01.737Z,31.22
2023-04-12T02:00:28.056Z,31.19
2023-04-12T02:02:54.550Z,31.23
2023-04-12T02:05:21.060Z,30.95
2023-04-12T02:07:47.367Z,30.80
2023-04-12T02:10:14.516Z,30.76
2023-04-12T02:12:41.290Z,30.91
2023-04-12T02:15:08.130Z,30.71
2023-04-12T02:17:37.319Z,30.45
2023-04-12T02:20:09.630Z,30.44
2023-04-12T02:22:36.008Z,30.50
2023-04-12T02:25:02.722Z,30.40
2023-04-12T02:27:29.052Z,30.57
2023-04-12T02:29:55.875Z,30.61
2023-04-12T02:32:22.315Z,30.54
2023-04-12T02:34:51.360Z,30.11
2023-04-12T02:37:18.362Z,30.25
2023-04-12T02:39:44.741Z,29.84
2023-04-12T02:42:11.098Z,29.84
2023-04-12T02:44:37.406Z,29.96
2023-04-12T02:47:03.739Z,29.99
2023-04-12T02:49:30.226Z,30.06
2023-04-12T02:51:56.997Z,30.24
2023-04-12T02:54:23.325Z,30.47
2023-04-12T02:56:49.667Z,30.41
2023-04-12T02:59:16.152Z,30.31
2023-04-12T03:01:46.620Z,30.21
2023-04-12T03:04:13.313Z,30.56
2023-04-12T03:06:52.518Z,30.43
2023-04-12T03:09:18.872Z,30.28
2023-04-12T03:11:45.785Z,30.12
2023-04-12T03:14:12.103Z,30.27
2023-04-12T03:16:38.421Z,30.13
2023-04-12T03:19:06.118Z,30.34
2023-04-12T03:21:33.160Z,30.40
2023-04-12T03:23:59.576Z,30.50
2023-04-12T03:26:26.567Z,30.41
2023-04-12T03:28:59.801Z,30.41
2023-04-12T03:31:27.323Z,30.37
2023-04-12T03:33:53.743Z,30.46
2023-04-12T03:36:21.640Z,30.50
2023-04-12T03:38:47.992Z,30.44
2023-04-12T03:41:15.248Z,30.50
2023-04-12T03:43:42.559Z,30.46
2023-04-12T03:46:08.917Z,30.49
2023-04-12T03:48:36.130Z,30.08
2023-04-12T03:51:07.698Z,30.12
2023-04-12T03:53:34.410Z,30.16
2023-04-12T03:56:00.727Z,30.11
2023-04-12T03:58:27.058Z,30.12
2023-04-12T04:00:53.383Z,29.98
2023-04-12T04:03:19.865Z,30.05
2023-04-12T04:05:46.240Z,30.16
2023-04-12T04:08:12.564Z,30.06
2023-04-12T04:10:38.884Z,30.17
2023-04-12T04:13:05.310Z,30.11
2023-04-12T04:15:32.661Z,30.08
2023-04-12T04:17:59.009Z,30.24
2023-04-12T04:20:27.347Z,30.05
2023-04-12T04:22:54.240Z,30.12
2023-04-12T04:25:21.806Z,30.30
2023-04-12T04:27:49.412Z,30.01
2023-04-12T04:30:16.456Z,30.00
2023-04-12T04:32:43.677Z,30.16
2023-04-12T04:35:10.073Z,30.05
2023-04-12T04:37:37.170Z,29.99
2023-04-12T04:40:08.479Z,29.96
2023-04-12T04:42:34.909Z,30.08
2023-04-12T04:45:05.373Z,29.83
2023-04-12T04:47:31.800Z,30.12
2023-04-12T04:49:59.510Z,30.00
2023-04-12T04:52:26.004Z,30.18
2023-04-12T04:54:57.380Z,30.12
2023-04-12T04:57:23.945Z,29.96
2023-04-12T04:59:50.506Z,29.74
2023-04-12T05:02:16.935Z,29.68
2023-04-12T05:04:43.335Z,29.63
2023-04-12T05:07:10.816Z,29.48
2023-04-12T05:09:37.373Z,29.36
2023-04-12T05:12:03.725Z,29.32
2023-04-12T05:14:43.981Z,29.34
2023-04-12T05:17:13.331Z,29.51
2023-04-12T05:19:41.302Z,29.57
2023-04-12T05:22:07.640Z,29.57
2023-04-12T05:24:33.995Z,29.68
2023-04-12T05:27:00.351Z,29.51
2023-04-12T05:29:26.672Z,29.44
2023-04-12T05:31:52.985Z,29.46
2023-04-12T05:34:19.319Z,29.67
2023-04-12T05:36:45.996Z,29.33
2023-04-12T05:39:12.316Z,29.44
2023-04-12T05:41:38.657Z,29.43
2023-04-12T05:44:05.060Z,29.30
2023-04-12T05:46:31.513Z,29.23
2023-04-12T05:48:58.038Z,29.12
2023-04-12T05:51:37.713Z,29.10
2023-04-12T05:54:07.269Z,29.22
2023-04-12T05:56:33.801Z,29.13
2023-04-12T05:59:03.188Z,29.30
2023-04-12T06:01:32.501Z,29.33
2023-04-12T06:03:59.232Z,29.50
2023-04-12T06:06:30.034Z,29.43
2023-04-12T06:09:00.056Z,29.35
2023-04-12T06:11:29.258Z,29.27
2023-04-12T06:13:55.578Z,29.31
2023-04-12T06:16:21.987Z,29.26
2023-04-12T06:18:48.363Z,29.36
2023-04-12T06:21:14.708Z,29.24
2023-04-12T06:23:41.071Z,29.48
2023-04-12T06:26:07.396Z,29.49
2023-04-12T06:28:33.729Z,29.39
2023-04-12T06:31:00.976Z,29.29
2023-04-12T06:33:27.350Z,29.35
2023-04-12T06:35:53.692Z,29.31
2023-04-12T06:38:20.123Z,29.46
2023-04-12T06:40:46.450Z,29.52
2023-04-12T06:43:12.797Z,29.44
2023-04-12T06:45:39.165Z,29.47
2023-04-12T06:48:05.633Z,29.44
2023-04-12T06:50:32.052Z,29.53
2023-04-12T06:52:58.395Z,29.45
2023-04-12T06:55:27.069Z,29.37
2023-04-12T06:57:53.701Z,29.48
2023-04-12T07:00:20.033Z,29.50
2023-04-12T07:02:46.713Z,29.37
2023-04-12T07:05:13.612Z,29.48
2023-04-12T07:07:39.960Z,29.58
2023-04-12T07:10:06.664Z,29.72
2023-04-12T07:12:33.292Z,29.69
2023-04-12T07:14:59.768Z,29.79
2023-04-12T07:17:29.229Z,29.95
2023-04-12T07:19:55.680Z,29.98
2023-04-12T07:22:22.010Z,30.09
2023-04-12T07:24:48.680Z,30.06
2023-04-12T07:27:15.806Z,30.02
2023-04-12T07:29:42.472Z,30.00
2023-04-12T07:32:09.229Z,30.05
2023-04-12T07:34:36.826Z,30.10
2023-04-12T07:37:04.187Z,30.00
2023-04-12T07:39:31.707Z,30.04
2023-04-12T07:41:58.221Z,30.07
2023-04-12T07:44:24.783Z,30.17
2023-04-12T07:46:51.166Z,30.07
2023-04-12T07:49:17.487Z,30.27
2023-04-12T07:51:44.261Z,30.47
2023-04-12T07:54:10.606Z,30.22
2023-04-12T07:56:37.014Z,30.29
2023-04-12T07:59:03.333Z,30.64
2023-04-12T08:01:30.328Z,30.71
2023-04-12T08:03:56.996Z,30.61
2023-04-12T08:06:23.630Z,30.62
2023-04-12T08:08:49.959Z,30.70
2023-04-12T08:11:16.393Z,30.70
2023-04-12T08:13:42.787Z,30.66
2023-04-12T08:16:09.169Z,30.79
2023-04-12T08:18:35.756Z,30.70
2023-04-12T08:21:02.589Z,30.78
2023-04-12T08:23:28.904Z,30.96
2023-04-12T08:26:02.630Z,30.57
2023-04-12T08:28:29.686Z,30.81
2023-04-12T08:30:56.138Z,30.66
2023-04-12T08:33:22.541Z,30.86
2023-04-12T08:35:49.597Z,30.88
2023-04-12T08:38:16.461Z,30.75
2023-04-12T08:40:43.075Z,30.88
2023-04-12T08:43:11.672Z,31.02
2023-04-12T08:45:38.120Z,30.82
2023-04-12T08:48:04.622Z,31.20
2023-04-12T08:50:31.410Z,30.84
2023-04-12T08:53:00.765Z,31.21
2023-04-12T08:55:27.208Z,31.17
2023-04-12T08:57:54.030Z,31.06
2023-04-12T09:00:21.025Z,31.20
2023-04-12T09:02:48.990Z,31.61
2023-04-12T09:05:15.930Z,31.07
2023-04-12T09:07:42.441Z,31.59
2023-04-12T09:10:08.982Z,31.30
2023-04-12T09:12:37.762Z,31.37
2023-04-12T09:15:12.888Z,31.20
2023-04-12T09:17:40.520Z,31.53
2023-04-12T09:20:27.395Z,31.39
2023-04-12T09:22:55.656Z,31.24
2023-04-12T09:25:41.171Z,31.29
2023-04-12T09:28:23.901Z,31.15
2023-04-12T09:30:54.771Z,31.24
2023-04-12T09:33:22.247Z,31.27
2023-04-12T09:35:48.724Z,31.20
2023-04-12T09:38:15.345Z,31.24
2023-04-12T09:40:43.519Z,31.33
2023-04-12T09:43:10.678Z,31.29
2023-04-12T09:45:39.040Z,31.19
2023-04-12T09:48:06.361Z,31.11
2023-04-12T09:50:35.775Z,31.38
2023-04-12T09:53:02.661Z,31.23
2023-04-12T09:55:29.684Z,31.33
2023-04-12T09:57:56.172Z,31.43
2023-04-12T10:00:23.009Z,31.19
2023-04-12T10:02:51.820Z,31.35
2023-04-12T10:05:19.671Z,31.20
2023-04-12T10:07:46.468Z,31.34
2023-04-12T10:10:17.455Z,31.15
2023-04-12T10:12:45.502Z,31.20
2023-04-12T10:15:17.281Z,31.06
2023-04-12T10:17:45.367Z,31.20
2023-04-12T10:20:12.304Z,31.05
2023-04-12T10:22:39.450Z,31.25
2023-04-12T10:25:05.882Z,31.09
2023-04-12T10:27:32.474Z,31.00
2023-04-12T10:30:18.422Z,31.21
2023-04-12T10:32:44.780Z,31.23
2023-04-12T10:35:11.851Z,31.20
2023-04-12T10:37:56.901Z,31.10
2023-04-12T10:40:23.242Z,31.23
2023-04-12T10:42:49.684Z,31.14
2023-04-12T10:45:25.206Z,31.29
2023-04-12T10:47:51.519Z,31.16
2023-04-12T10:50:24.993Z,31.33
2023-04-12T10:53:09.858Z,31.12
2023-04-12T10:55:38.291Z,31.22
2023-04-12T10:58:04.659Z,31.17
2023-04-12T11:00:49.657Z,31.14
2023-04-12T11:03:17.885Z,31.33
2023-04-12T11:05:56.924Z,31.31
2023-04-12T11:08:23.348Z,31.22
2023-04-12T11:10:49.980Z,31.21
2023-04-12T11:13:16.685Z,31.37
2023-04-12T11:15:43.847Z,31.29
2023-04-12T11:18:10.522Z,31.39
2023-04-12T11:20:36.947Z,31.26
2023-04-12T11:23:03.481Z,31.38
2023-04-12T11:25:29.833Z,31.47
2023-04-12T11:27:56.317Z,31.48
2023-04-12T11:30:23.616Z,31.31
2023-04-12T11:32:50.189Z,31.42
2023-04-12T11:35:16.991Z,32.06
2023-04-12T11:37:43.705Z,32.05
2023-04-12T11:40:10.428Z,31.80
2023-04-12T11:42:36.767Z,31.77
2023-04-12T11:45:10.127Z,31.86
2023-04-12T11:47:44.325Z,31.86
2023-04-12T11:50:10.988Z,31.33
2023-04-12T11:52:37.346Z,31.28
2023-04-12T11:55:06.499Z,31.17
2023-04-12T11:57:33.085Z,31.13
2023-04-12T12:00:00.174Z,31.11
2023-04-12T12:02:30.397Z,30.94
2023-04-12T12:04:58.556Z,31.03
2023-04-12T12:07:25.819Z,31.03
2023-04-12T12:09:52.360Z,31.20
2023-04-12T12:12:18.814Z,31.11
2023-04-12T12:14:45.546Z,31.12
2023-04-12T12:17:12.356Z,31.14
2023-04-12T12:19:39.761Z,31.21
2023-04-12T12:22:06.046Z,31.22
2023-04-12T12:24:32.429Z,31.14
2023-04-12T12:27:01.274Z,31.01
2023-04-12T12:29:27.605Z,30.95
2023-04-12T12:31:54.019Z,31.03
2023-04-12T12:34:20.423Z,31.23
2023-04-12T12:36:47.065Z,31.22
2023-04-12T12:39:15.354Z,31.07
2023-04-12T12:41:41.729Z,31.09
2023-04-12T12:44:08.625Z,31.31
2023-04-12T12:49:04.276Z,31.00
2023-04-12T12:51:31.432Z,30.79
2023-04-12T12:53:58.014Z,30.78
2023-04-12T12:56:24.536Z,30.94
2023-04-12T12:58:50.881Z,30.81
2023-04-12T13:01:17.221Z,30.68
2023-04-12T13:03:43.800Z,30.94
2023-04-12T13:06:10.271Z,31.29
2023-04-12T13:08:37.148Z,31.23
2023-04-12T13:11:03.906Z,31.24
2023-04-12T13:13:30.366Z,31.12
2023-04-12T13:15:56.703Z,31.11
2023-04-12T13:18:23.048Z,31.13
2023-04-12T13:20:49.357Z,31.11
2023-04-12T13:23:16.033Z,31.30
2023-04-12T13:25:42.363Z,31.25
2023-04-12T13:28:08.718Z,31.31
2023-04-12T13:30:35.170Z,31.33
2023-04-12T13:33:01.550Z,31.34
2023-04-12T13:35:27.894Z,31.31
2023-04-12T13:37:54.439Z,31.39
2023-04-12T13:40:20.839Z,31.38
2023-04-12T13:42:47.197Z,31.28
2023-04-12T13:45:13.661Z,31.39
2023-04-12T13:47:40.051Z,31.44
2023-04-12T13:50:06.796Z,31.54
2023-04-12T13:52:33.145Z,31.48
2023-04-12T13:54:59.608Z,31.33
2023-04-12T13:57:26.245Z,31.32
2023-04-12T13:59:52.550Z,31.33
2023-04-12T14:02:18.953Z,31.38
2023-04-12T14:04:54.360Z,31.30
2023-04-12T14:07:21.184Z,31.16
2023-04-12T14:09:48.613Z,31.18
2023-04-12T14:12:15.467Z,31.01
2023-04-12T14:14:42.234Z,31.32
2023-04-12T14:17:08.619Z,31.45
2023-04-12T14:19:34.959Z,31.35
2023-04-12T14:22:02.395Z,31.32
2023-04-12T14:24:28.736Z,31.33
2023-04-12T14:26:57.100Z,31.25
2023-04-12T14:29:23.465Z,31.31
2023-04-12T14:31:49.853Z,31.29
2023-04-12T14:34:16.312Z,31.56
2023-04-12T14:36:42.696Z,31.50
2023-04-12T14:39:10.836Z,31.62
2023-04-12T14:41:38.567Z,32.35
2023-04-12T14:44:05.009Z,31.98
2023-04-12T14:46:31.810Z,32.30
2023-04-12T14:49:00.940Z,32.13
2023-04-12T14:51:28.194Z,32.07
2023-04-12T14:53:54.531Z,32.12
2023-04-12T14:56:23.859Z,32.39
2023-04-12T14:58:51.242Z,32.37
2023-04-12T15:01:18.409Z,32.30
2023-04-12T15:03:45.804Z,31.93
2023-04-12T15:06:12.979Z,32.05
2023-04-12T15:08:42.817Z,31.98
2023-04-12T15:11:09.950Z,32.11
2023-04-12T15:13:36.795Z,31.95
2023-04-12T15:16:03.909Z,31.98
2023-04-12T15:18:30.378Z,31.90
2023-04-12T15:21:00.078Z,31.77
2023-04-12T15:23:26.801Z,32.07
2023-04-12T15:26:01.103Z,32.14
2023-04-12T15:28:27.889Z,32.10
2023-04-12T15:30:55.508Z,31.89
2023-04-12T15:33:23.105Z,31.88
2023-04-12T15:35:50.537Z,32.02
2023-04-12T15:38:21.941Z,31.82
2023-04-12T15:40:56.791Z,31.92
2023-04-12T15:43:24.832Z,31.88
2023-04-12T15:45:53.223Z,32.07
2023-04-12T15:48:20.554Z,31.92
2023-04-12T15:50:47.467Z,32.08
2023-04-12T15:53:14.296Z,31.84
2023-04-12T15:55:43.839Z,32.02
2023-04-12T15:58:10.567Z,31.95
2023-04-12T16:00:38.258Z,31.88
2023-04-12T16:03:05.018Z,31.87
2023-04-12T16:05:32.990Z,31.70
2023-04-12T16:07:59.742Z,31.98
2023-04-12T16:10:26.828Z,31.81
2023-04-12T16:12:53.906Z,31.66
2023-04-12T16:15:20.546Z,31.64
2023-04-12T16:17:47.350Z,31.66
2023-04-12T16:20:17.173Z,31.58
2023-04-12T16:22:44.757Z,31.37
2023-04-12T16:25:12.138Z,31.49
2023-04-12T16:27:38.534Z,31.57
2023-04-12T16:30:05.649Z,31.74
2023-04-12T16:32:32.175Z,31.63
2023-04-12T16:34:59.008Z,31.64
2023-04-12T16:37:26.439Z,31.70
2023-04-12T16:39:53.036Z,31.71
2023-04-12T16:42:21.937Z,31.72
2023-04-12T16:44:48.263Z,31.67
2023-04-12T16:47:15.352Z,31.82
2023-04-12T16:49:41.797Z,31.63
2023-04-12T16:52:09.721Z,31.70
2023-04-12T16:54:36.046Z,32.01
2023-04-12T16:57:02.365Z,32.27
2023-04-12T16:59:35.527Z,32.01
2023-04-12T17:02:01.912Z,31.92
2023-04-12T17:04:28.450Z,32.16
2023-04-12T17:06:54.939Z,32.25
2023-04-12T17:09:21.431Z,32.23
2023-04-12T17:11:47.748Z,32.32
2023-04-12T17:14:14.862Z,32.30
2023-04-12T17:16:41.333Z,32.37
2023-04-12T17:19:10.453Z,32.17
2023-04-12T17:21:40.922Z,32.32
2023-04-12T17:24:07.594Z,32.30
2023-04-12T17:26:33.945Z,32.73
2023-04-12T17:29:01.030Z,32.75
2023-04-12T17:34:01.007Z,32.72
2023-04-12T17:36:31.335Z,32.57
2023-04-12T17:38:58.965Z,32.63
2023-04-12T17:41:25.999Z,32.26
2023-04-12T17:43:52.382Z,32.47
2023-04-12T17:46:18.748Z,32.21
2023-04-12T17:48:45.257Z,32.51
2023-04-12T17:51:11.621Z,32.52
2023-04-12T17:53:38.010Z,32.43
2023-04-12T17:56:04.513Z,32.16
2023-04-12T17:58:30.914Z,32.26
2023-04-12T18:00:57.250Z,32.37
2023-04-12T18:03:23.763Z,32.19
2023-04-12T18:05:50.591Z,32.29
2023-04-12T18:08:16.967Z,32.40
2023-04-12T18:10:43.291Z,32.59
2023-04-12T18:13:09.766Z,32.05
2023-04-12T18:15:37.495Z,32.02
2023-04-12T18:18:04.427Z,32.37
2023-04-12T18:20:31.271Z,32.19
2023-04-12T18:22:57.609Z,32.26
2023-04-12T18:25:23.959Z,32.05
2023-04-12T18:27:50.303Z,32.06
2023-04-12T18:30:17.619Z,32.24
2023-04-12T18:32:44.052Z,32.67
2023-04-12T18:35:10.789Z,33.20
2023-04-12T18:37:37.186Z,33.63
2023-04-12T18:40:07.073Z,33.96
2023-04-12T18:42:33.419Z,33.65
2023-04-12T18:44:59.764Z,33.57
2023-04-12T18:47:26.240Z,33.59
2023-04-12T18:49:53.960Z,33.26
2023-04-12T18:52:20.274Z,33.07
2023-04-12T18:54:46.638Z,33.00
2023-04-12T18:57:13.660Z,32.71
2023-04-12T18:59:40.041Z,32.61
2023-04-12T19:02:06.806Z,32.43
2023-04-12T19:04:33.165Z,32.44
2023-04-12T19:06:59.580Z,32.67
2023-04-12T19:09:26.019Z,32.42
2023-04-12T19:11:55.407Z,32.50
2023-04-12T19:14:21.801Z,32.43
2023-04-12T19:16:48.116Z,32.53
2023-04-12T19:19:14.540Z,32.45
2023-04-12T19:21:41.009Z,32.73
2023-04-12T19:24:07.640Z,32.78
2023-04-12T19:26:36.588Z,33.31
2023-04-12T19:29:03.040Z,33.74
2023-04-12T19:31:29.370Z,33.79
2023-04-12T19:33:56.553Z,34.08
2023-04-12T19:36:24.396Z,34.21
2023-04-12T19:38:50.754Z,33.92
2023-04-12T19:41:17.156Z,33.99
2023-04-12T19:43:43.493Z,33.99
2023-04-12T19:46:09.949Z,34.26
2023-04-12T19:48:36.689Z,34.22
2023-04-12T19:51:04.273Z,34.31
2023-04-12T19:53:30.742Z,33.96
2023-04-12T19:55:57.347Z,33.54
2023-04-12T19:58:24.367Z,33.68
2023-04-12T20:00:51.734Z,33.65
2023-04-12T20:03:18.200Z,33.87
2023-04-12T20:05:45.990Z,33.14
2023-04-12T20:08:12.306Z,33.06
2023-04-12T20:10:38.838Z,33.14
2023-04-12T20:13:09.620Z,33.53
2023-04-12T20:15:36.092Z,33.66
2023-04-12T20:18:02.844Z,33.70
2023-04-12T20:20:29.192Z,33.74
2023-04-12T20:22:58.750Z,33.29
2023-04-12T20:25:25.807Z,33.60
2023-04-12T20:27:52.400Z,33.57
2023-04-12T20:30:18.996Z,33.43
2023-04-12T20:32:45.349Z,33.54
2023-04-12T20:35:14.064Z,33.43
2023-04-12T20:37:40.495Z,33.54
2023-04-12T20:40:07.283Z,33.34
2023-04-12T20:42:33.610Z,33.54
2023-04-12T20:44:59.937Z,33.56
2023-04-12T20:47:26.480Z,33.45
2023-04-12T20:49:52.878Z,33.53
2023-04-12T20:52:19.542Z,33.33
2023-04-12T20:54:48.138Z,33.32
2023-04-12T20:57:19.806Z,33.37
2023-04-12T20:59:46.320Z,33.51
2023-04-12T21:02:13.159Z,33.62
2023-04-12T21:04:41.096Z,33.62
2023-04-12T21:07:07.519Z,33.70
2023-04-12T21:09:34.014Z,33.41
2023-04-12T21:12:02.727Z,33.73
2023-04-12T21:14:29.389Z,33.55
2023-04-12T21:16:55.745Z,33.68
2023-04-12T21:19:22.839Z,33.73
2023-04-12T21:21:51.123Z,33.57
2023-04-12T21:24:18.420Z,33.63
2023-04-12T21:26:44.973Z,33.77
2023-04-12T21:29:11.658Z,33.56
2023-04-12T21:31:41.526Z,33.58
2023-04-12T21:34:09.160Z,33.84
2023-04-12T21:36:35.490Z,33.90
2023-04-12T21:39:01.931Z,33.85
2023-04-12T21:41:29.588Z,33.85
2023-04-12T21:43:55.933Z,33.91
2023-04-12T21:46:27.006Z,34.21
2023-04-12T21:48:53.392Z,33.84
2023-04-12T21:51:19.700Z,33.87
2023-04-12T21:53:46.269Z,33.79
2023-04-12T21:56:12.599Z,33.83
2023-04-12T21:58:38.958Z,34.03
2023-04-12T22:01:05.418Z,34.07
2023-04-12T22:03:32.114Z,34.12
2023-04-12T22:06:04.292Z,33.87
2023-04-12T22:08:32.855Z,33.99
2023-04-12T22:11:00.209Z,33.87
2023-04-12T22:13:26.747Z,33.96
2023-04-12T22:15:53.073Z,33.77
2023-04-12T22:18:19.480Z,33.87
2023-04-12T22:20:45.985Z,33.90
2023-04-12T22:23:13.719Z,33.76
2023-04-12T22:25:40.057Z,33.91
2023-04-12T22:28:06.373Z,33.91
2023-04-12T22:30:32.846Z,33.96
2023-04-12T22:32:59.901Z,33.85
2023-04-12T22:35:27.019Z,33.80
2023-04-12T22:37:53.406Z,33.94
2023-04-12T22:40:19.769Z,33.66
2023-04-12T22:42:47.197Z,33.76
2023-04-12T22:45:16.818Z,33.67
2023-04-12T22:47:43.821Z,33.74
2023-04-12T22:50:10.940Z,33.62
2023-04-12T22:52:40.405Z,33.68
2023-04-12T22:55:07.676Z,33.71
2023-04-12T22:57:36.197Z,33.59
2023-04-12T23:00:06.337Z,33.68
2023-04-12T23:02:33.621Z,33.62
2023-04-12T23:05:00.389Z,33.49
2023-04-12T23:07:29.751Z,33.50
2023-04-12T23:09:56.318Z,33.55
2023-04-12T23:12:22.629Z,33.56
2023-04-12T23:14:48.947Z,33.47
2023-04-12T23:17:16.770Z,33.52
2023-04-12T23:19:44.578Z,33.60
2023-04-12T23:22:11.430Z,33.57
2023-04-12T23:24:37.752Z,33.53
2023-04-12T23:27:04.062Z,33.40
2023-04-12T23:29:30.383Z,33.50
2023-04-12T23:31:56.775Z,33.40
2023-04-12T23:34:23.168Z,33.40
2023-04-12T23:36:50.465Z,33.45
2023-04-12T23:39:18.107Z,33.34
2023-04-12T23:41:45.057Z,33.41
2023-04-12T23:44:11.390Z,33.39
2023-04-12T23:46:38.749Z,33.26
2023-04-12T23:49:05.179Z,33.26
2023-04-12T23:51:31.509Z,33.39
2023-04-12T23:53:58.138Z,33.23
2023-04-12T23:56:24.657Z,33.30
2023-04-12T23:58:51.373Z,33.30
